Time;durP1;ratioP1;P1;durP2;ratioP2;P2;SDS_P1;SDS_P2;PMS_P1;PMS_P2;Temp;Humidity;BMP_temperature;BMP_pressure;BME280_temperature;BME280_humidity;BME280_pressure;Samples;Min_cycle;Max_cycle;Signal;HPM_P1;HPM_P2
2024/01/27 00:00:40;;;;;;;1.30;1.20;;;;;;;6.53;100.00;98247.75;5110492;28;20233;-57
2024/01/27 00:03:07;;;;;;;1.97;1.27;;;;;;;6.58;100.00;98253.66;5111797;28;20284;-57
2024/01/27 00:05:33;;;;;;;1.47;1.37;;;;;;;6.49;100.00;98254.94;5110911;28;20285;-57
2024/01/27 00:08:01;;;;;;;2.90;1.60;;;;;;;6.42;100.00;98250.94;5112018;28;20339;-56
2024/01/27 00:10:28;;;;;;;1.53;1.40;;;;;;;6.40;100.00;98252.81;5111757;28;20212;-56
2024/01/27 00:12:54;;;;;;;2.73;1.20;;;;;;;6.20;100.00;98256.44;5111410;28;20220;-57
2024/01/27 00:15:21;;;;;;;1.20;1.20;;;;;;;6.24;100.00;98249.25;5113153;28;20204;-56
2024/01/27 00:17:47;;;;;;;1.40;1.30;;;;;;;6.20;100.00;98255.59;5111508;28;20292;-57
2024/01/27 00:20:14;;;;;;;1.60;1.10;;;;;;;6.16;100.00;98254.06;5111689;28;20547;-57
2024/01/27 00:22:40;;;;;;;1.50;1.37;;;;;;;6.10;100.00;98254.34;5111928;28;20248;-57
2024/01/27 00:25:09;;;;;;;1.37;1.27;;;;;;;6.10;100.00;98260.44;5111653;28;20304;-56
2024/01/27 00:27:37;;;;;;;1.63;1.53;;;;;;;6.16;100.00;98267.19;5111534;28;20229;-57
2024/01/27 00:30:04;;;;;;;1.60;1.50;;;;;;;6.09;100.00;98263.16;5111437;28;20531;-57
2024/01/27 00:32:33;;;;;;;1.87;1.47;;;;;;;6.09;100.00;98263.16;5112412;28;20288;-58
2024/01/27 00:35:00;;;;;;;2.30;1.30;;;;;;;5.97;100.00;98268.09;5113455;28;20596;-56
2024/01/27 00:37:27;;;;;;;1.60;1.30;;;;;;;6.00;100.00;98254.81;5113887;27;20213;-57
2024/01/27 00:39:53;;;;;;;1.50;1.40;;;;;;;6.02;100.00;98261.75;5111216;28;20197;-57
2024/01/27 00:42:23;;;;;;;2.43;1.80;;;;;;;6.06;100.00;98268.56;5111001;28;20209;-57
2024/01/27 00:44:50;;;;;;;2.60;1.47;;;;;;;6.04;100.00;98262.53;5111144;28;20197;-57
2024/01/27 00:47:17;;;;;;;2.20;1.60;;;;;;;6.09;100.00;98282.41;5110874;28;20205;-57
2024/01/27 00:49:43;;;;;;;1.77;1.67;;;;;;;6.12;100.00;98273.50;5111206;28;20292;-56
2024/01/27 00:52:10;;;;;;;1.70;1.60;;;;;;;6.04;100.00;98280.91;5111102;28;20197;-57
2024/01/27 00:54:36;;;;;;;1.80;1.53;;;;;;;6.10;100.00;98285.84;5111215;28;20223;-56
2024/01/27 00:57:04;;;;;;;1.67;1.57;;;;;;;6.17;100.00;98277.59;5111116;28;20201;-57
2024/01/27 00:59:32;;;;;;;1.60;1.50;;;;;;;6.25;100.00;98285.09;5110332;28;20236;-57
2024/01/27 01:01:58;;;;;;;1.70;1.60;;;;;;;6.31;100.00;98287.41;5110764;28;20292;-57
2024/01/27 01:04:25;;;;;;;2.03;1.60;;;;;;;6.40;100.00;98289.59;5111111;28;20216;-56
2024/01/27 01:06:51;;;;;;;2.10;1.77;;;;;;;6.45;100.00;98277.06;5110680;28;20633;-56
2024/01/27 01:09:18;;;;;;;2.03;1.80;;;;;;;6.52;100.00;98283.69;5110134;28;20673;-56
2024/01/27 01:11:44;;;;;;;2.00;1.70;;;;;;;6.58;100.00;98275.53;5110938;28;20605;-56
2024/01/27 01:14:11;;;;;;;2.03;1.60;;;;;;;6.60;100.00;98286.78;5110574;28;20670;-57
2024/01/27 01:16:39;;;;;;;1.70;1.57;;;;;;;6.66;100.00;98275.97;5110533;28;20243;-56
2024/01/27 01:19:06;;;;;;;2.00;1.90;;;;;;;6.56;100.00;98280.00;5110277;28;20714;-57
2024/01/27 01:21:34;;;;;;;2.63;1.90;;;;;;;6.63;100.00;98276.13;5110980;28;20308;-57
2024/01/27 01:24:03;;;;;;;1.83;1.43;;;;;;;6.61;100.00;98279.75;5110463;28;20196;-57
2024/01/27 01:26:30;;;;;;;1.70;1.60;;;;;;;6.54;100.00;98281.88;5110222;28;20637;-58
2024/01/27 01:28:56;;;;;;;1.67;1.57;;;;;;;6.39;100.00;98293.16;5114180;28;20233;-56
2024/01/27 01:31:23;;;;;;;2.63;1.40;;;;;;;6.41;100.00;98302.63;5114306;28;20295;-57
2024/01/27 01:33:51;;;;;;;1.50;1.40;;;;;;;6.37;100.00;98306.38;5115159;28;20215;-57
2024/01/27 01:36:17;;;;;;;2.90;1.60;;;;;;;6.30;100.00;98309.38;5114285;28;20201;-56
2024/01/27 01:38:44;;;;;;;1.97;1.40;;;;;;;6.24;100.00;98309.66;5113134;28;20288;-57
2024/01/27 01:41:11;;;;;;;1.20;1.10;;;;;;;6.16;100.00;98312.69;5113592;28;20209;-57
2024/01/27 01:43:37;;;;;;;2.33;1.60;;;;;;;6.17;100.00;98316.16;5114597;28;20314;-55
2024/01/27 01:46:04;;;;;;;2.77;1.30;;;;;;;6.10;100.00;98312.13;5115288;28;20592;-57
2024/01/27 01:48:31;;;;;;;5.93;1.70;;;;;;;6.07;100.00;98309.66;5113766;28;20328;-57
2024/01/27 01:50:59;;;;;;;1.93;1.73;;;;;;;6.09;100.00;98311.28;5114761;28;20231;-57
2024/01/27 01:53:26;;;;;;;5.33;1.73;;;;;;;6.09;100.00;98311.28;5114636;28;20216;-57
2024/01/27 01:55:53;;;;;;;1.97;1.40;;;;;;;6.06;100.00;98308.78;5114130;28;20625;-57
2024/01/27 01:58:20;;;;;;;2.63;1.80;;;;;;;6.02;100.00;98314.28;5114453;28;20228;-57
2024/01/27 02:00:46;;;;;;;1.83;1.43;;;;;;;6.02;100.00;98309.88;5114004;28;20318;-57
2024/01/27 02:03:13;;;;;;;3.50;1.50;;;;;;;6.06;100.00;98308.78;5114582;28;20562;-57
2024/01/27 02:05:40;;;;;;;3.23;1.60;;;;;;;6.02;100.00;98303.78;5114319;28;20212;-57
2024/01/27 02:08:08;;;;;;;4.00;1.50;;;;;;;6.05;100.00;98307.09;5113779;28;20677;-59
2024/01/27 02:10:37;;;;;;;2.97;1.70;;;;;;;6.06;100.00;98314.03;5113995;28;20200;-58
2024/01/27 02:13:04;;;;;;;2.63;1.50;;;;;;;6.05;100.00;98311.50;5113759;27;20203;-57
2024/01/27 02:15:31;;;;;;;4.10;1.80;;;;;;;6.08;100.00;98319.22;5114394;28;20527;-57
2024/01/27 02:17:57;;;;;;;2.30;1.60;;;;;;;6.09;100.00;98318.31;5113484;28;20201;-57
2024/01/27 02:20:24;;;;;;;4.80;1.90;;;;;;;6.15;100.00;98321.50;5113122;28;20680;-57
2024/01/27 02:22:50;;;;;;;3.20;1.60;;;;;;;6.20;100.00;98318.66;5113934;28;20650;-57
2024/01/27 02:25:18;;;;;;;4.90;1.60;;;;;;;6.23;100.00;98324.59;5113137;28;20670;-57
2024/01/27 02:27:45;;;;;;;3.67;1.50;;;;;;;6.25;100.00;98327.13;5113470;28;20208;-58
2024/01/27 02:30:12;;;;;;;1.70;1.50;;;;;;;6.27;100.00;98330.56;5113517;28;20235;-57
2024/01/27 02:32:38;;;;;;;2.13;1.00;;;;;;;6.28;100.00;98333.09;5113552;28;20205;-57
2024/01/27 02:35:06;;;;;;;2.00;1.43;;;;;;;6.36;100.00;98343.22;5113397;27;20197;-57
2024/01/27 02:37:32;;;;;;;3.97;1.90;;;;;;;6.36;100.00;98345.84;5114037;28;20312;-57
2024/01/27 02:39:59;;;;;;;3.67;1.57;;;;;;;6.34;100.00;98339.84;5112965;28;20195;-58
2024/01/27 02:42:27;;;;;;;2.10;1.50;;;;;;;6.36;100.00;98341.44;5114220;28;21032;-57
2024/01/27 02:44:53;;;;;;;3.63;1.67;;;;;;;6.43;100.00;98339.38;5115980;28;20298;-57
2024/01/27 02:47:20;;;;;;;3.07;1.10;;;;;;;6.51;100.00;98339.84;5116084;28;20229;-58
2024/01/27 02:49:46;;;;;;;1.90;1.43;;;;;;;6.46;100.00;98339.22;5114222;28;20236;-57
2024/01/27 02:52:13;;;;;;;6.70;1.70;;;;;;;6.43;100.00;98336.75;5112810;28;20297;-57
2024/01/27 02:54:40;;;;;;;5.13;2.07;;;;;;;6.39;100.00;98337.81;5112908;28;20220;-57
2024/01/27 02:57:07;;;;;;;1.90;1.63;;;;;;;6.39;100.00;98337.81;5113605;28;20211;-58
2024/01/27 02:59:34;;;;;;;3.13;1.70;;;;;;;6.41;100.00;98336.81;5113320;28;20260;-57
2024/01/27 03:02:00;;;;;;;3.60;1.63;;;;;;;6.39;100.00;98337.81;5112988;28;20648;-57
2024/01/27 03:04:27;;;;;;;2.57;1.47;;;;;;;6.40;100.00;98337.75;5112860;28;20201;-59
2024/01/27 03:06:53;;;;;;;3.30;1.70;;;;;;;6.38;100.00;98336.09;5112486;28;20292;-58
2024/01/27 03:09:20;;;;;;;5.43;1.50;;;;;;;6.39;100.00;98338.66;5112414;28;20235;-57
2024/01/27 03:11:46;;;;;;;3.10;1.43;;;;;;;6.34;100.00;98334.59;5112375;28;20201;-57
2024/01/27 03:14:13;;;;;;;2.17;1.60;;;;;;;6.26;100.00;98329.69;5112627;28;20276;-58
2024/01/27 03:16:41;;;;;;;2.67;1.60;;;;;;;6.24;100.00;98328.06;5112736;28;20291;-57
2024/01/27 03:19:08;;;;;;;2.30;1.40;;;;;;;6.25;100.00;98327.13;5113137;28;20209;-58
2024/01/27 03:21:34;;;;;;;1.27;1.17;;;;;;;6.25;100.00;98332.38;5113083;28;20205;-58
2024/01/27 03:24:01;;;;;;;2.10;1.37;;;;;;;6.21;100.00;98333.47;5112298;28;20729;-57
2024/01/27 03:26:27;;;;;;;2.80;1.90;;;;;;;6.06;100.00;98335.06;5111932;28;20610;-57
2024/01/27 03:28:54;;;;;;;2.77;1.53;;;;;;;5.97;100.00;98332.88;5112206;28;20221;-56
2024/01/27 03:31:20;;;;;;;3.67;1.53;;;;;;;5.93;100.00;98341.81;5112171;28;20209;-57
2024/01/27 03:33:48;;;;;;;2.97;1.17;;;;;;;5.93;100.00;98342.69;5112441;28;20193;-57
2024/01/27 03:36:15;;;;;;;2.00;1.00;;;;;;;5.79;100.00;98346.84;5112201;28;20289;-57
2024/01/27 03:38:42;;;;;;;2.13;1.30;;;;;;;5.72;100.00;98355.94;5112519;28;20215;-57
2024/01/27 03:41:08;;;;;;;2.83;1.30;;;;;;;5.64;100.00;98356.28;5111499;28;20209;-57
2024/01/27 03:43:35;;;;;;;2.33;1.53;;;;;;;5.62;100.00;98345.00;5112048;28;20194;-58
2024/01/27 03:46:02;;;;;;;4.87;1.43;;;;;;;5.66;100.00;98359.72;5112508;28;20209;-58
2024/01/27 03:48:29;;;;;;;4.43;1.60;;;;;;;5.51;100.00;98361.25;5112424;28;20320;-58
2024/01/27 03:50:57;;;;;;;1.80;1.57;;;;;;;5.49;100.00;98367.50;5111009;28;20216;-58
2024/01/27 03:53:24;;;;;;;2.93;1.80;;;;;;;5.53;100.00;98364.66;5112034;28;20652;-58
2024/01/27 03:55:50;;;;;;;3.47;1.63;;;;;;;5.44;100.00;98369.47;5111539;28;20209;-57
2024/01/27 03:58:17;;;;;;;1.67;1.23;;;;;;;5.45;100.00;98376.44;5112514;28;20193;-57
2024/01/27 04:00:43;;;;;;;3.73;1.87;;;;;;;5.41;100.00;98377.50;5111535;28;20228;-57
2024/01/27 04:03:10;;;;;;;2.63;1.97;;;;;;;5.42;100.00;98373.94;5112687;28;20305;-57
2024/01/27 04:05:37;;;;;;;3.53;1.83;;;;;;;5.39;100.00;98384.56;5112173;28;20208;-57
2024/01/27 04:08:06;;;;;;;3.33;1.40;;;;;;;5.37;100.00;98378.53;5112340;28;20193;-58
2024/01/27 04:10:32;;;;;;;5.17;1.57;;;;;;;5.28;100.00;98377.16;5111277;28;20231;-58
2024/01/27 04:12:59;;;;;;;4.10;1.70;;;;;;;5.26;100.00;98372.91;5112453;28;20214;-57
2024/01/27 04:15:25;;;;;;;2.10;1.70;;;;;;;5.21;100.00;98367.88;5111794;28;20578;-57
2024/01/27 04:17:52;;;;;;;2.47;1.87;;;;;;;5.27;100.00;98372.00;5111802;28;20727;-57
2024/01/27 04:20:18;;;;;;;7.10;3.67;;;;;;;5.19;100.00;98369.72;5111341;28;20333;-58
2024/01/27 04:22:45;;;;;;;3.80;1.80;;;;;;;5.18;100.00;98372.41;5111407;28;20602;-57
2024/01/27 04:25:13;;;;;;;3.40;1.60;;;;;;;5.20;100.00;98366.19;5111416;28;20639;-57
2024/01/27 04:27:42;;;;;;;1.67;1.53;;;;;;;5.19;100.00;98371.50;5112065;28;20205;-58
2024/01/27 04:30:09;;;;;;;6.57;2.50;;;;;;;5.22;100.00;98384.47;5111949;28;20565;-57
2024/01/27 04:32:36;;;;;;;3.50;1.30;;;;;;;5.19;100.00;98374.09;5111342;28;20839;-58
2024/01/27 04:35:04;;;;;;;3.17;1.53;;;;;;;5.16;100.00;98382.13;5111401;28;20197;-57
2024/01/27 04:37:30;;;;;;;2.40;1.47;;;;;;;5.10;100.00;98387.63;5111755;28;20204;-57
2024/01/27 04:39:57;;;;;;;5.43;1.50;;;;;;;5.06;100.00;98384.31;5110907;28;20236;-57
2024/01/27 04:42:25;;;;;;;2.27;1.73;;;;;;;4.99;100.00;98382.84;5111492;28;20201;-58
2024/01/27 04:44:51;;;;;;;4.53;1.60;;;;;;;4.96;100.00;98381.19;5111183;28;20314;-58
2024/01/27 04:47:18;;;;;;;4.27;1.70;;;;;;;4.89;100.00;98382.38;5111240;28;20201;-55
2024/01/27 04:49:45;;;;;;;3.57;2.03;;;;;;;4.88;100.00;98380.69;5110586;28;20683;-57
2024/01/27 04:52:11;;;;;;;2.87;1.93;;;;;;;4.72;100.00;98392.72;5111430;28;20544;-58
2024/01/27 04:54:38;;;;;;;2.50;1.37;;;;;;;4.77;100.00;98397.78;5111046;28;20892;-57
2024/01/27 04:57:05;;;;;;;4.97;1.57;;;;;;;4.64;100.00;98391.38;5113654;28;20219;-57
2024/01/27 04:59:33;;;;;;;3.17;1.87;;;;;;;4.66;100.00;98390.38;5112628;28;20261;-56
2024/01/27 05:01:59;;;;;;;2.13;1.63;;;;;;;4.62;100.00;98396.66;5112016;28;20203;-57
2024/01/27 05:04:26;;;;;;;3.53;1.90;;;;;;;4.59;100.00;98399.41;5110608;28;20201;-58
2024/01/27 05:06:53;;;;;;;2.77;2.07;;;;;;;4.51;100.00;98407.59;5110629;28;20201;-58
2024/01/27 05:09:20;;;;;;;3.30;1.80;;;;;;;4.56;100.00;98409.16;5110354;28;20319;-57
2024/01/27 05:11:47;;;;;;;2.87;1.83;;;;;;;4.64;100.00;98407.09;5110438;28;20207;-57
2024/01/27 05:14:14;;;;;;;6.50;2.10;;;;;;;4.59;100.00;98404.66;5110529;28;20197;-57
2024/01/27 05:16:42;;;;;;;4.90;1.80;;;;;;;4.54;100.00;98401.34;5110321;28;20284;-57
2024/01/27 05:19:08;;;;;;;5.77;1.67;;;;;;;4.54;100.00;98411.84;5110832;28;20204;-57
2024/01/27 05:21:35;;;;;;;3.63;1.70;;;;;;;4.52;100.00;98405.81;5110829;28;20798;-57
2024/01/27 05:24:02;;;;;;;5.93;1.77;;;;;;;4.50;100.00;98410.25;5110585;28;20548;-57
2024/01/27 05:26:28;;;;;;;4.37;1.90;;;;;;;4.55;100.00;98407.44;5109818;28;20525;-57
2024/01/27 05:28:55;;;;;;;2.43;1.70;;;;;;;4.46;100.00;98387.75;5110984;28;20205;-57
2024/01/27 05:31:21;;;;;;;3.03;1.63;;;;;;;4.41;100.00;98390.53;5110065;28;20197;-57
2024/01/27 05:33:49;;;;;;;1.93;1.60;;;;;;;4.35;100.00;98396.03;5110621;28;20235;-58
2024/01/27 05:36:16;;;;;;;2.90;1.83;;;;;;;4.32;100.00;98401.38;5110288;28;20193;-57
2024/01/27 05:38:42;;;;;;;3.53;2.13;;;;;;;4.33;100.00;98410.09;5110308;28;20638;-57
2024/01/27 05:41:09;;;;;;;4.27;2.10;;;;;;;4.33;100.00;98407.47;5110157;28;20503;-57
2024/01/27 05:43:35;;;;;;;3.70;1.90;;;;;;;4.32;100.00;98395.31;5110461;28;21522;-57
2024/01/27 05:46:02;;;;;;;2.63;2.10;;;;;;;4.29;100.00;98400.66;5109712;28;20206;-57
2024/01/27 05:48:29;;;;;;;4.83;1.90;;;;;;;4.21;100.00;98397.50;5110396;28;20201;-58
2024/01/27 05:50:57;;;;;;;3.40;1.90;;;;;;;4.11;100.00;98399.63;5110122;28;20226;-58
2024/01/27 05:53:24;;;;;;;7.13;1.97;;;;;;;4.11;100.00;98402.22;5110776;28;20204;-58
2024/01/27 05:55:50;;;;;;;3.67;1.87;;;;;;;4.18;100.00;98408.94;5111660;28;20197;-58
2024/01/27 05:58:17;;;;;;;4.03;2.10;;;;;;;4.11;100.00;98411.88;5112241;28;20238;-57
2024/01/27 06:00:44;;;;;;;2.20;1.93;;;;;;;4.16;100.00;98404.69;5110671;28;20328;-57
2024/01/27 06:03:11;;;;;;;4.17;1.93;;;;;;;4.07;100.00;98405.06;5110266;28;20223;-57
2024/01/27 06:05:38;;;;;;;3.70;1.90;;;;;;;3.99;100.00;98400.97;5110201;28;20205;-58
2024/01/27 06:08:07;;;;;;;3.77;1.83;;;;;;;3.94;100.00;98408.13;5110871;28;20209;-58
2024/01/27 06:10:34;;;;;;;3.17;1.97;;;;;;;3.86;100.00;98399.72;5109199;28;20316;-58
2024/01/27 06:13:00;;;;;;;2.83;1.93;;;;;;;3.86;100.00;98406.75;5110208;28;20255;-58
2024/01/27 06:15:27;;;;;;;3.70;2.13;;;;;;;3.88;100.00;98407.53;5112899;28;20205;-58
2024/01/27 06:17:53;;;;;;;4.57;1.90;;;;;;;3.83;100.00;98394.59;5114278;28;20289;-57
2024/01/27 06:20:20;;;;;;;1.83;1.67;;;;;;;3.83;100.00;98399.84;5113855;27;20280;-58
2024/01/27 06:22:46;;;;;;;3.63;2.20;;;;;;;3.81;100.00;98401.69;5114204;28;20545;-58
2024/01/27 06:25:16;;;;;;;4.00;2.00;;;;;;;3.78;100.00;98399.19;5112911;28;20656;-57
2024/01/27 06:27:43;;;;;;;3.57;1.90;;;;;;;3.70;100.00;98408.22;5113557;28;20233;-58
2024/01/27 06:30:09;;;;;;;4.37;2.10;;;;;;;3.62;100.00;98410.25;5113636;28;20695;-58
2024/01/27 06:32:36;;;;;;;3.17;2.13;;;;;;;3.61;100.00;98398.97;5114219;28;20296;-57
2024/01/27 06:35:04;;;;;;;2.03;1.80;;;;;;;3.67;100.00;98406.59;5112959;28;20201;-57
2024/01/27 06:37:30;;;;;;;3.10;2.27;;;;;;;3.60;100.00;98404.25;5113870;28;20204;-58
2024/01/27 06:39:57;;;;;;;4.20;2.33;;;;;;;3.69;100.00;98406.50;5112763;28;20208;-57
2024/01/27 06:42:25;;;;;;;3.03;2.23;;;;;;;3.61;100.00;98405.97;5113963;28;20201;-58
2024/01/27 06:44:52;;;;;;;3.13;2.23;;;;;;;3.57;100.00;98407.84;5113392;28;21444;-57
2024/01/27 06:47:18;;;;;;;4.33;2.43;;;;;;;3.58;100.00;98409.53;5113467;28;20208;-58
2024/01/27 06:49:45;;;;;;;3.67;2.17;;;;;;;3.61;100.00;98412.06;5113438;28;20220;-57
2024/01/27 06:52:12;;;;;;;2.93;2.13;;;;;;;3.55;100.00;98407.03;5113690;28;20305;-57
2024/01/27 06:54:41;;;;;;;3.63;1.90;;;;;;;3.60;100.00;98410.34;5113678;28;20205;-56
2024/01/27 06:57:07;;;;;;;5.90;2.87;;;;;;;3.53;100.00;98415.84;5114302;28;20265;-57
2024/01/27 06:59:35;;;;;;;3.60;2.17;;;;;;;3.61;100.00;98405.97;5113707;28;20232;-57
2024/01/27 07:02:02;;;;;;;3.00;1.90;;;;;;;3.43;100.00;98423.19;5113255;28;20194;-57
2024/01/27 07:04:28;;;;;;;4.73;2.23;;;;;;;3.45;100.00;98421.34;5113420;28;20603;-58
2024/01/27 07:06:55;;;;;;;2.93;2.57;;;;;;;3.49;100.00;98417.72;5115555;28;20531;-58
2024/01/27 07:09:22;;;;;;;2.60;2.20;;;;;;;3.44;100.00;98419.66;5116639;28;21394;-57
2024/01/27 07:11:49;;;;;;;5.57;2.23;;;;;;;3.38;100.00;98414.66;5116043;28;20238;-57
2024/01/27 07:14:15;;;;;;;5.33;2.30;;;;;;;3.34;100.00;98408.69;5116443;28;20208;-58
2024/01/27 07:16:43;;;;;;;4.03;2.63;;;;;;;3.38;100.00;98419.88;5120431;28;20264;-57
2024/01/27 07:19:11;;;;;;;3.03;2.13;;;;;;;3.41;100.00;98430.22;5135485;28;20181;-57
2024/01/27 07:21:37;;;;;;;6.77;2.10;;;;;;;3.49;100.00;98417.72;5130992;28;20219;-57
2024/01/27 07:24:05;;;;;;;2.67;2.47;;;;;;;3.43;100.00;98413.59;5134856;28;20201;-57
2024/01/27 07:26:31;;;;;;;2.80;2.30;;;;;;;3.46;100.00;98412.63;5124800;28;20205;-58
2024/01/27 07:28:58;;;;;;;3.47;2.40;;;;;;;3.49;100.00;98402.03;5117362;28;20544;-57
2024/01/27 07:31:26;;;;;;;7.60;2.93;;;;;;;3.47;100.00;98406.47;5114690;28;20228;-57
2024/01/27 07:33:54;;;;;;;5.07;2.77;;;;;;;3.50;100.00;98409.84;5116387;28;20201;-57
2024/01/27 07:36:21;;;;;;;3.53;2.80;;;;;;;3.53;100.00;98419.31;5116016;28;20288;-57
2024/01/27 07:38:47;;;;;;;2.60;2.20;;;;;;;3.56;100.00;98418.34;5114251;28;20352;-57
2024/01/27 07:41:14;;;;;;;3.53;2.20;;;;;;;3.53;100.00;98432.41;5113002;28;20202;-57
2024/01/27 07:43:41;;;;;;;3.53;2.13;;;;;;;3.60;100.00;98430.41;5113555;28;20201;-57
2024/01/27 07:46:08;;;;;;;2.90;2.60;;;;;;;3.62;100.00;98428.56;5113021;28;20258;-59
2024/01/27 07:48:34;;;;;;;5.40;2.30;;;;;;;3.62;100.00;98424.19;5113573;28;20219;-57
2024/01/27 07:51:03;;;;;;;3.93;2.33;;;;;;;3.69;100.00;98424.81;5111759;28;20223;-56
2024/01/27 07:53:29;;;;;;;3.03;2.37;;;;;;;3.75;100.00;98425.47;5112890;28;20565;-57
2024/01/27 07:55:56;;;;;;;3.70;2.87;;;;;;;3.79;100.00;98421.81;5111721;28;20288;-57
2024/01/27 07:58:22;;;;;;;7.20;4.67;;;;;;;3.72;100.00;98425.56;5112973;28;20288;-56
2024/01/27 08:00:49;;;;;;;5.50;4.03;;;;;;;3.92;100.00;98432.69;5111641;28;20633;-57
2024/01/27 08:03:16;;;;;;;3.93;2.30;;;;;;;3.96;100.00;98440.34;5112586;28;20211;-56
2024/01/27 08:05:42;;;;;;;3.57;2.43;;;;;;;3.96;100.00;98440.34;5113031;28;20281;-57
2024/01/27 08:08:10;;;;;;;3.67;2.53;;;;;;;4.01;100.00;98438.41;5113292;28;20189;-57
2024/01/27 08:10:37;;;;;;;4.30;2.33;;;;;;;4.09;100.00;98426.78;5111760;28;20217;-57
2024/01/27 08:13:04;;;;;;;5.53;2.93;;;;;;;4.18;100.00;98429.06;5112117;28;20215;-57
2024/01/27 08:15:31;;;;;;;4.43;3.00;;;;;;;4.27;100.00;98433.91;5111312;28;20201;-57
2024/01/27 08:17:58;;;;;;;3.47;3.17;;;;;;;4.26;100.00;98433.06;5112200;28;20212;-57
2024/01/27 08:20:24;;;;;;;3.07;2.77;;;;;;;4.34;100.00;98432.75;5111779;28;20195;-57
2024/01/27 08:22:51;;;;;;;5.57;3.40;;;;;;;4.31;100.00;98419.78;5111687;28;20199;-57
2024/01/27 08:25:19;;;;;;;4.10;3.37;;;;;;;4.37;100.00;98420.38;5111065;28;20274;-57
2024/01/27 08:27:45;;;;;;;5.53;3.20;;;;;;;4.45;100.00;98417.47;5111486;28;20236;-58
2024/01/27 08:30:13;;;;;;;5.30;3.17;;;;;;;4.53;100.00;98420.63;5111164;28;20677;-57
2024/01/27 08:32:40;;;;;;;4.77;2.90;;;;;;;4.62;100.00;98420.25;5111838;28;20257;-56
2024/01/27 08:35:07;;;;;;;4.10;3.10;;;;;;;4.68;100.00;98429.59;5111171;28;20197;-57
2024/01/27 08:37:38;;;;;;;4.70;2.80;;;;;;;4.78;100.00;98429.16;5110989;28;20306;-57
2024/01/27 08:40:06;;;;;;;4.67;3.10;;;;;;;4.86;100.00;98432.31;5110466;28;20652;-57
2024/01/27 08:42:35;;;;;;;6.17;3.00;;;;;;;5.03;100.00;98429.84;5110854;28;20197;-58
2024/01/27 08:45:02;;;;;;;9.97;4.87;;;;;;;5.09;100.00;98425.25;5111101;28;20622;-57
2024/01/27 08:47:28;;;;;;;4.57;3.57;;;;;;;5.20;100.00;98425.66;5111456;28;20273;-58
2024/01/27 08:49:55;;;;;;;6.63;3.87;;;;;;;5.22;100.00;98432.53;5110910;28;20648;-57
2024/01/27 08:52:21;;;;;;;6.33;3.30;;;;;;;5.21;100.00;98424.75;5111224;28;20644;-58
2024/01/27 08:54:48;;;;;;;5.70;3.53;;;;;;;5.17;100.00;98428.41;5110559;28;20230;-57
2024/01/27 08:57:14;;;;;;;5.43;3.60;;;;;;;5.20;100.00;98433.53;5111575;28;20303;-57
2024/01/27 08:59:45;;;;;;;6.17;3.07;;;;;;;5.27;100.00;98433.19;5111229;28;20328;-58
2024/01/27 09:02:11;;;;;;;5.87;3.40;;;;;;;5.38;100.00;98422.22;5111329;28;20204;-58
2024/01/27 09:04:38;;;;;;;6.47;3.70;;;;;;;5.43;100.00;98431.59;5111438;28;20197;-57
2024/01/27 09:07:05;;;;;;;4.13;3.33;;;;;;;5.56;100.00;98433.69;5110741;28;20624;-58
2024/01/27 09:09:33;;;;;;;6.07;3.80;;;;;;;5.73;100.00;98434.63;5110663;28;20292;-57
2024/01/27 09:11:59;;;;;;;4.77;3.47;;;;;;;5.76;100.00;98431.84;5111951;28;20224;-57
2024/01/27 09:14:26;;;;;;;5.97;3.90;;;;;;;5.84;100.00;98426.25;5112511;28;20204;-58
2024/01/27 09:16:54;;;;;;;5.87;3.70;;;;;;;5.98;100.00;98435.25;5110610;28;20541;-57
2024/01/27 09:19:20;;;;;;;4.60;3.63;;;;;;;6.01;100.00;98431.59;5113077;28;20249;-57
2024/01/27 09:21:47;;;;;;;5.73;3.93;;;;;;;6.07;100.00;98435.72;5116071;28;20265;-58
2024/01/27 09:24:13;;;;;;;6.43;3.67;;;;;;;6.17;100.00;98429.09;5114310;28;21148;-58
2024/01/27 09:26:40;;;;;;;6.67;4.10;;;;;;;6.28;100.00;98427.69;5116278;28;20596;-57
2024/01/27 09:29:06;;;;;;;9.20;5.83;;;;;;;6.36;100.00;98436.06;5112577;28;20652;-57
2024/01/27 09:31:33;;;;;;;6.33;4.00;;;;;;;6.31;100.00;98429.28;5111576;28;20225;-57
2024/01/27 09:34:01;;;;;;;5.33;3.90;;;;;;;6.29;100.00;98433.78;5111781;28;20220;-57
2024/01/27 09:36:28;;;;;;;4.73;3.80;;;;;;;6.41;100.00;98428.78;5110251;28;20216;-58
2024/01/27 09:38:54;;;;;;;6.77;3.83;;;;;;;6.53;100.00;98431.75;5111339;28;20982;-57
2024/01/27 09:41:21;;;;;;;6.30;4.33;;;;;;;6.44;100.00;98433.91;5110521;28;20213;-57
2024/01/27 09:43:48;;;;;;;7.97;4.60;;;;;;;6.50;100.00;98436.25;5111119;28;20217;-57
2024/01/27 09:46:16;;;;;;;4.90;3.63;;;;;;;6.60;100.00;98428.75;5110516;28;20212;-57
2024/01/27 09:48:43;;;;;;;7.33;3.77;;;;;;;6.60;100.00;98428.75;5110609;28;20893;-57
2024/01/27 09:51:12;;;;;;;4.53;3.50;;;;;;;6.79;100.00;98423.44;5114627;28;20293;-57
2024/01/27 09:53:38;;;;;;;5.83;3.70;;;;;;;6.76;100.00;98423.59;5114646;28;20201;-57
2024/01/27 09:56:05;;;;;;;8.20;3.90;;;;;;;6.85;100.00;98423.97;5114292;28;20233;-57
2024/01/27 09:58:32;;;;;;;7.80;3.73;;;;;;;6.83;100.00;98417.97;5114356;28;20201;-57
2024/01/27 10:01:01;;;;;;;5.57;3.43;;;;;;;6.93;100.00;98413.09;5113909;28;20256;-56
2024/01/27 10:03:28;;;;;;;4.33;3.40;;;;;;;6.93;100.00;98415.72;5114515;28;20201;-57
2024/01/27 10:05:57;;;;;;;4.97;3.60;;;;;;;6.92;100.00;98422.75;5113592;28;20205;-57
2024/01/27 10:08:25;;;;;;;4.47;3.60;;;;;;;6.98;100.00;98416.31;5112859;28;20193;-56
2024/01/27 10:10:55;;;;;;;6.13;4.20;;;;;;;6.93;100.00;98410.44;5112445;28;20243;-57
2024/01/27 10:13:26;;;;;;;4.07;3.50;;;;;;;6.92;100.00;98404.34;5112402;28;20209;-57
2024/01/27 10:16:00;;;;;;;6.70;3.43;;;;;;;6.87;100.00;98406.34;5112973;28;20603;-56
2024/01/27 10:18:27;;;;;;;4.17;3.77;;;;;;;6.97;100.00;98402.34;5113835;28;20622;-57
2024/01/27 10:20:53;;;;;;;5.37;3.67;;;;;;;6.98;100.00;98404.00;5112800;28;20560;-57
2024/01/27 10:23:20;;;;;;;5.13;3.60;;;;;;;6.99;100.00;98407.50;5113723;28;20296;-57
2024/01/27 10:25:48;;;;;;;6.10;3.90;;;;;;;7.17;100.00;98403.06;5113392;28;20880;-57
2024/01/27 10:28:14;;;;;;;5.40;3.90;;;;;;;7.14;100.00;98413.75;5114309;28;20205;-56
2024/01/27 10:30:41;;;;;;;8.93;4.10;;;;;;;7.12;100.00;98413.00;5114506;28;20227;-57
2024/01/27 10:33:09;;;;;;;6.00;4.10;;;;;;;7.13;100.00;98409.41;5113735;28;20205;-57
2024/01/27 10:35:35;;;;;;;7.10;4.40;;;;;;;7.32;100.00;98402.28;5113906;28;20211;-58
2024/01/27 10:38:02;;;;;;;7.03;4.10;;;;;;;7.38;100.00;98391.44;5113857;28;20205;-57
2024/01/27 10:40:29;;;;;;;4.53;3.47;;;;;;;7.53;100.00;98390.63;5113434;28;20197;-57
2024/01/27 10:43:08;;;;;;;8.40;4.50;;;;;;;7.58;100.00;98385.94;5113133;28;20474;-57
2024/01/27 10:45:37;;;;;;;5.63;4.23;;;;;;;7.75;100.00;98383.28;5113877;28;20199;-56
2024/01/27 10:48:07;;;;;;;5.77;4.40;;;;;;;7.91;100.00;98378.88;5113522;28;20205;-56
2024/01/27 10:50:37;;;;;;;4.50;3.80;;;;;;;8.08;100.00;98382.38;5113475;28;20228;-57
2024/01/27 10:53:05;;;;;;;5.70;3.93;;;;;;;8.14;100.00;98382.88;5113521;28;20189;-58
2024/01/27 10:55:35;;;;;;;5.13;4.23;;;;;;;8.36;100.00;98387.81;5112882;28;20204;-57
2024/01/27 10:58:03;;;;;;;5.40;4.07;;;;;;;8.33;100.00;98380.06;5113537;28;20208;-57
2024/01/27 11:00:31;;;;;;;6.27;4.33;;;;;;;8.53;100.00;98382.44;5112205;28;20257;-58
2024/01/27 11:02:59;;;;;;;7.00;4.07;;;;;;;8.59;100.00;98360.97;5112360;28;20204;-57
2024/01/27 11:05:28;;;;;;;6.03;4.20;;;;;;;8.53;100.00;98357.84;5112807;28;20205;-57
2024/01/27 11:07:54;;;;;;;5.77;3.80;;;;;;;8.45;100.00;98359.16;5113847;28;20204;-57
2024/01/27 11:10:22;;;;;;;4.53;4.13;;;;;;;8.47;100.00;98362.53;5112938;28;20537;-57
2024/01/27 11:12:49;;;;;;;4.23;3.70;;;;;;;8.51;100.00;98357.94;5113330;28;20257;-58
2024/01/27 11:15:16;;;;;;;5.03;3.50;;;;;;;8.60;100.00;98360.06;5112737;28;20704;-58
2024/01/27 11:17:45;;;;;;;5.77;4.67;;;;;;;8.67;100.00;98350.00;5113893;28;20209;-56
2024/01/27 11:20:12;;;;;;;5.37;4.53;;;;;;;8.68;100.00;98343.78;5113034;28;20205;-57
2024/01/27 11:22:42;;;;;;;5.67;4.20;;;;;;;8.73;100.00;98339.94;5113323;28;20645;-57
2024/01/27 11:25:09;;;;;;;6.67;4.53;;;;;;;9.45;100.00;98333.78;5112843;28;20213;-57
2024/01/27 11:27:36;;;;;;;6.03;4.33;;;;;;;9.76;100.00;98336.22;5113128;28;20210;-58
2024/01/27 11:30:03;;;;;;;6.37;4.17;;;;;;;10.18;100.00;98331.78;5112888;28;20205;-58
2024/01/27 11:32:30;;;;;;;5.73;4.03;;;;;;;10.90;98.72;98323.44;5128657;28;20227;-60